createdAt,value
2023-03-19T00:00:39.096Z,37.40
2023-03-19T00:03:27.215Z,34.80
2023-03-19T00:05:55.696Z,35.70
2023-03-19T00:08:23.860Z,34.40
2023-03-19T00:10:52.294Z,37.70
2023-03-19T00:13:20.561Z,36.20
2023-03-19T00:15:48.862Z,41.10
2023-03-19T00:18:16.932Z,37.00
2023-03-19T00:20:45.126Z,32.00
2023-03-19T00:23:13.396Z,32.90
2023-03-19T00:25:42.215Z,34.10
2023-03-19T00:28:10.362Z,38.40
2023-03-19T00:30:38.518Z,38.40
2023-03-19T00:33:08.212Z,36.20
2023-03-19T00:35:39.292Z,35.10
2023-03-19T00:38:08.007Z,38.40
2023-03-19T00:40:36.127Z,34.60
2023-03-19T00:43:04.489Z,40.80
2023-03-19T00:45:33.009Z,37.50
2023-03-19T00:48:01.411Z,36.60
2023-03-19T00:50:29.804Z,39.40
2023-03-19T00:52:57.938Z,36.90
2023-03-19T00:55:27.490Z,37.10
2023-03-19T00:57:56.283Z,34.00
2023-03-19T01:00:24.537Z,32.90
2023-03-19T01:02:52.725Z,36.50
2023-03-19T01:05:21.504Z,36.00
2023-03-19T01:07:50.949Z,32.70
2023-03-19T01:10:21.006Z,39.10
2023-03-19T01:12:49.254Z,33.80
2023-03-19T01:15:18.362Z,38.20
2023-03-19T01:17:47.001Z,34.20
2023-03-19T01:20:18.726Z,36.60
2023-03-19T01:22:46.838Z,33.30
2023-03-19T01:25:15.099Z,34.20
2023-03-19T01:27:52.504Z,35.50
2023-03-19T01:30:21.830Z,34.30
2023-03-19T01:33:08.898Z,36.00
2023-03-19T01:36:10.151Z,38.10
2023-03-19T01:38:54.546Z,38.40
2023-03-19T01:41:24.130Z,41.40
2023-03-19T01:43:53.873Z,40.00
2023-03-19T01:46:50.498Z,35.50
2023-03-19T01:49:40.551Z,41.80
2023-03-19T01:55:07.613Z,36.40
2023-03-19T01:58:07.851Z,36.80
2023-03-19T02:00:57.311Z,34.30
2023-03-19T02:03:26.896Z,32.30
2023-03-19T02:06:03.026Z,31.90
2023-03-19T02:08:32.577Z,33.10
2023-03-19T02:11:02.181Z,33.40
2023-03-19T02:13:30.475Z,32.60
2023-03-19T02:15:58.698Z,30.40
2023-03-19T02:18:27.413Z,31.50
2023-03-19T02:21:06.232Z,30.10
2023-03-19T02:23:42.441Z,35.60
2023-03-19T02:26:22.004Z,33.30
2023-03-19T02:28:53.118Z,32.40
2023-03-19T02:31:25.833Z,31.70
2023-03-19T02:34:37.583Z,33.50
2023-03-19T02:37:11.850Z,33.00
2023-03-19T02:39:50.815Z,29.80
2023-03-19T02:42:21.248Z,32.50
2023-03-19T02:44:49.518Z,30.70
2023-03-19T02:47:18.279Z,33.00
2023-03-19T02:49:46.899Z,28.90
2023-03-19T02:52:17.490Z,34.10
2023-03-19T02:54:46.789Z,28.70
2023-03-19T02:57:14.913Z,29.70
2023-03-19T02:59:43.209Z,28.80
2023-03-19T03:02:11.949Z,28.90
2023-03-19T03:04:40.309Z,32.30
2023-03-19T03:07:08.653Z,33.60
2023-03-19T03:09:36.780Z,30.50
2023-03-19T03:12:06.213Z,30.50
2023-03-19T03:14:35.175Z,28.20
2023-03-19T03:17:03.479Z,30.20
2023-03-19T03:19:32.221Z,34.00
2023-03-19T03:22:01.149Z,30.90
2023-03-19T03:24:30.503Z,27.00
2023-03-19T03:26:59.016Z,28.40
2023-03-19T03:29:27.307Z,32.80
2023-03-19T03:31:55.368Z,35.40
2023-03-19T03:34:23.466Z,29.50
2023-03-19T03:36:52.165Z,31.30
2023-03-19T03:39:20.215Z,31.20
2023-03-19T03:41:48.267Z,33.40
2023-03-19T03:44:16.654Z,34.00
2023-03-19T03:46:45.517Z,31.40
2023-03-19T03:49:13.937Z,33.20
2023-03-19T03:51:42.447Z,33.70
2023-03-19T03:54:10.996Z,32.40
2023-03-19T03:56:39.066Z,34.20
2023-03-19T03:59:07.732Z,32.10
2023-03-19T04:01:36.300Z,38.70
2023-03-19T04:04:04.973Z,35.70
2023-03-19T04:06:33.148Z,33.50
2023-03-19T04:09:21.920Z,36.80
2023-03-19T04:11:51.557Z,37.20
2023-03-19T04:14:20.319Z,33.10
2023-03-19T04:16:48.720Z,38.50
2023-03-19T04:19:17.011Z,28.90
2023-03-19T04:21:45.728Z,31.40
2023-03-19T04:24:14.370Z,34.90
2023-03-19T04:26:42.719Z,30.40
2023-03-19T04:29:11.031Z,28.90
2023-03-19T04:31:39.671Z,32.00
2023-03-19T04:34:08.078Z,29.20
2023-03-19T04:36:36.853Z,33.00
2023-03-19T04:39:06.186Z,32.40
2023-03-19T04:41:34.919Z,32.80
2023-03-19T04:44:25.141Z,29.80
2023-03-19T04:46:54.626Z,30.30
2023-03-19T04:49:24.571Z,36.80
2023-03-19T04:51:53.111Z,35.70
2023-03-19T04:54:21.296Z,37.70
2023-03-19T04:56:49.708Z,29.50
2023-03-19T04:59:18.305Z,35.70
2023-03-19T05:01:46.455Z,34.70
2023-03-19T05:04:17.985Z,31.00
2023-03-19T05:06:46.664Z,35.30
2023-03-19T05:09:14.745Z,32.40
2023-03-19T05:11:44.431Z,34.60
2023-03-19T05:14:19.407Z,33.20
2023-03-19T05:17:08.026Z,33.30
2023-03-19T05:19:48.770Z,32.00
2023-03-19T05:22:18.631Z,30.20
2023-03-19T05:24:47.021Z,32.00
2023-03-19T05:27:15.778Z,33.20
2023-03-19T05:30:11.089Z,29.50
2023-03-19T05:32:58.945Z,26.40
2023-03-19T05:35:37.831Z,27.70
2023-03-19T05:38:11.191Z,28.20
2023-03-19T05:40:42.086Z,34.50
2023-03-19T05:43:23.570Z,31.70
2023-03-19T05:45:52.992Z,35.50
2023-03-19T05:48:24.071Z,33.10
2023-03-19T05:50:53.061Z,32.10
2023-03-19T05:53:23.192Z,33.40
2023-03-19T05:56:23.499Z,34.10
2023-03-19T05:59:17.235Z,36.90
2023-03-19T06:01:48.996Z,32.50
2023-03-19T06:04:17.331Z,30.40
2023-03-19T06:06:45.473Z,34.40
2023-03-19T06:09:14.039Z,32.70
2023-03-19T06:11:44.671Z,29.20
2023-03-19T06:14:42.030Z,29.90
2023-03-19T06:17:33.010Z,35.30
2023-03-19T06:20:04.678Z,36.50
2023-03-19T06:22:32.837Z,35.50
2023-03-19T06:25:01.117Z,35.00
2023-03-19T06:27:30.402Z,36.10
2023-03-19T06:30:08.138Z,34.80
2023-03-19T06:32:37.239Z,32.90
2023-03-19T06:35:11.011Z,28.20
2023-03-19T06:37:40.562Z,31.50
2023-03-19T06:40:10.102Z,33.00
2023-03-19T06:42:38.442Z,33.80
2023-03-19T06:45:07.749Z,34.40
2023-03-19T06:47:35.942Z,36.30
2023-03-19T06:50:04.578Z,35.70
2023-03-19T06:52:33.031Z,33.10
2023-03-19T06:55:01.243Z,32.10
2023-03-19T06:57:29.485Z,29.80
2023-03-19T06:59:57.762Z,32.20
2023-03-19T07:02:26.429Z,28.70
2023-03-19T07:04:54.734Z,27.50
2023-03-19T07:07:22.883Z,30.00
2023-03-19T07:09:51.488Z,25.70
2023-03-19T07:12:19.792Z,29.00
2023-03-19T07:14:47.994Z,28.30
2023-03-19T07:17:16.086Z,34.60
2023-03-19T07:19:44.660Z,33.60
2023-03-19T07:22:12.999Z,34.10
2023-03-19T07:24:41.344Z,37.90
2023-03-19T07:27:09.828Z,33.30
2023-03-19T07:29:38.484Z,39.10
2023-03-19T07:32:06.912Z,33.30
2023-03-19T07:34:35.182Z,33.70
2023-03-19T07:37:04.097Z,32.40
2023-03-19T07:39:32.581Z,33.70
2023-03-19T07:42:00.914Z,37.10
2023-03-19T07:44:30.696Z,35.20
2023-03-19T07:46:59.085Z,31.00
2023-03-19T07:49:27.243Z,32.00
2023-03-19T07:51:55.698Z,35.30
2023-03-19T07:54:23.978Z,33.80
2023-03-19T07:56:52.272Z,33.80
2023-03-19T07:59:20.422Z,30.50
2023-03-19T08:01:48.919Z,29.70
2023-03-19T08:04:17.710Z,27.00
2023-03-19T08:06:46.163Z,32.90
2023-03-19T08:09:14.277Z,31.40
2023-03-19T08:11:42.765Z,34.00
2023-03-19T08:14:10.885Z,27.40
2023-03-19T08:16:39.256Z,28.60
2023-03-19T08:19:08.437Z,27.00
2023-03-19T08:21:36.506Z,23.20
2023-03-19T08:24:05.144Z,24.20
2023-03-19T08:26:33.741Z,24.70
2023-03-19T08:29:02.049Z,25.50
2023-03-19T08:31:30.849Z,23.80
2023-03-19T08:34:04.168Z,26.00
2023-03-19T08:36:32.604Z,26.80
2023-03-19T08:39:01.291Z,26.10
2023-03-19T08:41:29.945Z,27.20
2023-03-19T08:43:58.322Z,32.90
2023-03-19T08:46:27.832Z,31.20
2023-03-19T08:48:56.353Z,20.50
2023-03-19T08:51:26.167Z,35.00
2023-03-19T08:53:54.467Z,29.60
2023-03-19T08:56:22.715Z,26.40
2023-03-19T08:58:51.093Z,26.70
2023-03-19T09:01:19.462Z,28.20
2023-03-19T09:03:48.161Z,28.30
2023-03-19T09:06:16.727Z,27.30
2023-03-19T09:08:44.941Z,33.40
2023-03-19T09:11:14.646Z,25.90
2023-03-19T09:13:42.795Z,25.30
2023-03-19T09:16:11.166Z,29.00
2023-03-19T09:18:39.309Z,31.30
2023-03-19T09:21:07.726Z,25.20
2023-03-19T09:23:36.316Z,28.80
2023-03-19T09:26:04.581Z,30.50
2023-03-19T09:28:32.730Z,35.30
2023-03-19T09:31:07.188Z,37.90
2023-03-19T09:33:35.828Z,42.90
2023-03-19T09:36:04.546Z,56.30
2023-03-19T09:38:33.633Z,41.20
2023-03-19T09:41:09.090Z,46.90
2023-03-19T09:43:50.720Z,38.20
2023-03-19T09:46:27.257Z,38.00
2023-03-19T09:49:01.029Z,35.80
2023-03-19T09:51:54.927Z,34.40
2023-03-19T09:54:42.872Z,33.10
2023-03-19T09:57:13.198Z,31.60
2023-03-19T09:59:43.332Z,33.10
2023-03-19T10:02:40.407Z,37.80
2023-03-19T10:05:18.349Z,36.20
2023-03-19T10:08:05.147Z,35.80
2023-03-19T10:10:49.514Z,39.20
2023-03-19T10:13:50.267Z,31.40
2023-03-19T10:16:24.364Z,36.40
2023-03-19T10:18:55.989Z,39.10
2023-03-19T10:21:30.219Z,41.20
2023-03-19T10:24:08.092Z,37.20
2023-03-19T10:26:36.301Z,41.20
2023-03-19T10:29:11.951Z,41.00
2023-03-19T10:31:58.326Z,44.90
2023-03-19T10:34:42.469Z,46.40
2023-03-19T10:37:13.582Z,46.70
2023-03-19T10:39:44.788Z,43.40
2023-03-19T10:42:37.869Z,45.90
2023-03-19T10:45:24.018Z,45.60
2023-03-19T10:47:53.050Z,44.30
2023-03-19T10:50:30.424Z,46.60
2023-03-19T10:53:18.462Z,45.40
2023-03-19T10:56:00.921Z,42.70
2023-03-19T10:58:31.607Z,44.60
2023-03-19T11:01:19.976Z,45.10
2023-03-19T11:03:52.541Z,42.80
2023-03-19T11:06:26.778Z,49.40
2023-03-19T11:09:07.703Z,43.20
2023-03-19T11:11:42.832Z,44.00
2023-03-19T11:14:24.901Z,44.70
2023-03-19T11:16:59.363Z,46.90
2023-03-19T11:19:30.862Z,42.20
2023-03-19T11:22:11.493Z,47.50
2023-03-19T11:24:42.103Z,45.70
2023-03-19T11:27:11.666Z,45.50
2023-03-19T11:29:45.214Z,41.30
2023-03-19T11:32:33.584Z,44.80
2023-03-19T11:35:11.249Z,42.20
2023-03-19T11:37:48.130Z,40.40
2023-03-19T11:40:46.063Z,41.00
2023-03-19T11:43:40.656Z,41.60
2023-03-19T11:46:35.908Z,41.40
2023-03-19T11:49:25.445Z,38.80
2023-03-19T11:52:03.410Z,41.60
2023-03-19T11:54:47.325Z,38.70
2023-03-19T11:57:43.686Z,43.00
2023-03-19T12:00:33.291Z,38.10
2023-03-19T12:03:22.191Z,39.00
2023-03-19T12:05:58.904Z,39.60
2023-03-19T12:08:32.947Z,32.30
2023-03-19T12:11:16.889Z,34.00
2023-03-19T12:13:51.344Z,35.20
2023-03-19T12:16:30.558Z,33.50
2023-03-19T12:19:12.202Z,36.60
2023-03-19T12:22:09.222Z,26.40
2023-03-19T12:25:14.962Z,27.30
2023-03-19T12:28:03.319Z,27.40
2023-03-19T12:30:57.644Z,31.10
2023-03-19T12:33:53.997Z,27.80
2023-03-19T12:36:28.511Z,25.90
2023-03-19T12:39:05.384Z,25.00
2023-03-19T12:41:39.280Z,30.60
2023-03-19T12:44:17.187Z,28.20
2023-03-19T12:46:59.688Z,30.50
2023-03-19T12:49:37.998Z,23.90
2023-03-19T12:52:27.389Z,26.40
2023-03-19T12:55:04.498Z,29.40
2023-03-19T12:57:46.869Z,24.10
2023-03-19T13:02:58.262Z,23.40
2023-03-19T13:05:35.456Z,23.50
2023-03-19T13:08:27.808Z,24.90
2023-03-19T13:13:32.119Z,26.80
2023-03-19T13:18:58.144Z,24.60
2023-03-19T13:21:37.914Z,26.80
2023-03-19T13:24:18.951Z,28.00
2023-03-19T13:26:49.188Z,34.50
2023-03-19T13:29:20.077Z,34.40
2023-03-19T13:31:48.978Z,33.80
2023-03-19T13:34:17.079Z,37.90
2023-03-19T13:36:51.849Z,37.90
2023-03-19T13:39:26.348Z,40.80
2023-03-19T13:42:08.049Z,41.20
2023-03-19T13:44:36.527Z,41.60
2023-03-19T13:47:27.014Z,39.80
2023-03-19T13:50:16.356Z,42.80
2023-03-19T13:52:50.768Z,44.10
2023-03-19T13:55:24.807Z,44.00
2023-03-19T13:58:12.627Z,46.20
2023-03-19T14:00:46.937Z,45.40
2023-03-19T14:03:25.461Z,47.60
2023-03-19T14:05:56.788Z,41.60
2023-03-19T14:08:33.639Z,44.30
2023-03-19T14:11:04.832Z,42.90
2023-03-19T14:13:42.757Z,46.40
2023-03-19T14:16:26.445Z,44.00
2023-03-19T14:19:01.323Z,45.70
2023-03-19T14:21:46.489Z,49.30
2023-03-19T14:27:36.187Z,49.90
2023-03-19T14:30:19.167Z,45.30
2023-03-19T14:32:49.999Z,52.40
2023-03-19T14:35:22.690Z,52.00
2023-03-19T14:37:54.215Z,50.20
2023-03-19T14:40:26.067Z,57.40
2023-03-19T14:43:08.345Z,51.20
2023-03-19T14:45:45.404Z,50.00
2023-03-19T14:48:38.298Z,51.40
2023-03-19T14:51:25.508Z,51.30
2023-03-19T14:53:58.904Z,52.00
2023-03-19T14:56:35.915Z,52.40
2023-03-19T14:59:06.181Z,50.10
2023-03-19T15:01:41.173Z,49.50
2023-03-19T15:04:12.353Z,53.20
2023-03-19T15:06:42.991Z,46.00
2023-03-19T15:09:31.269Z,49.10
2023-03-19T15:12:34.459Z,46.40
2023-03-19T15:15:30.905Z,46.40
2023-03-19T15:18:05.234Z,50.20
2023-03-19T15:20:37.814Z,49.90
2023-03-19T15:23:20.055Z,54.80
2023-03-19T15:26:01.069Z,47.40
2023-03-19T15:28:45.672Z,50.60
2023-03-19T15:31:30.911Z,53.70
2023-03-19T15:34:01.716Z,52.80
2023-03-19T15:36:33.350Z,50.20
2023-03-19T15:39:05.170Z,55.70
2023-03-19T15:41:40.203Z,52.50
2023-03-19T15:44:16.271Z,52.70
2023-03-19T15:46:45.934Z,54.70
2023-03-19T15:49:21.129Z,55.90
2023-03-19T15:51:53.538Z,57.10
2023-03-19T15:54:22.649Z,52.20
2023-03-19T15:56:52.350Z,51.60
2023-03-19T15:59:25.973Z,55.30
2023-03-19T16:02:01.139Z,55.10
2023-03-19T16:04:38.407Z,53.00
2023-03-19T16:07:23.747Z,57.00
2023-03-19T16:09:52.106Z,54.80
2023-03-19T16:12:40.983Z,60.10
2023-03-19T16:15:43.733Z,57.20
2023-03-19T16:20:59.044Z,53.80
2023-03-19T16:23:51.852Z,56.60
2023-03-19T16:26:44.588Z,58.00
2023-03-19T16:29:34.240Z,58.10
2023-03-19T16:32:11.381Z,57.40
2023-03-19T16:34:57.136Z,58.90
2023-03-19T16:37:37.892Z,63.40
2023-03-19T16:40:12.510Z,60.70
2023-03-19T16:42:44.870Z,55.60
2023-03-19T16:45:18.985Z,62.70
2023-03-19T16:47:50.042Z,60.00
2023-03-19T16:50:21.845Z,62.30
2023-03-19T16:52:50.717Z,60.20
2023-03-19T16:55:23.221Z,66.90
2023-03-19T16:57:58.078Z,62.10
2023-03-19T17:00:29.514Z,60.00
2023-03-19T17:02:59.531Z,68.20
2023-03-19T17:05:28.834Z,62.30
2023-03-19T17:07:56.999Z,61.70
2023-03-19T17:10:27.661Z,67.10
2023-03-19T17:12:56.753Z,59.40
2023-03-19T17:15:30.060Z,63.90
2023-03-19T17:18:00.582Z,63.00
2023-03-19T17:20:33.367Z,65.60
2023-03-19T17:23:02.225Z,62.20
2023-03-19T17:25:30.735Z,62.50
2023-03-19T17:27:59.016Z,66.10
2023-03-19T17:30:28.761Z,60.40
2023-03-19T17:32:57.818Z,60.90
2023-03-19T17:35:26.374Z,60.80
2023-03-19T17:37:55.334Z,60.60
2023-03-19T17:40:27.574Z,66.70
2023-03-19T17:42:56.434Z,65.30
2023-03-19T17:45:29.935Z,64.00
2023-03-19T17:47:58.714Z,55.10
2023-03-19T17:50:31.471Z,62.40
2023-03-19T17:53:00.596Z,56.90
2023-03-19T17:55:30.350Z,64.20
2023-03-19T17:57:58.469Z,58.40
2023-03-19T18:00:26.995Z,63.80
2023-03-19T18:02:57.008Z,60.30
2023-03-19T18:05:26.259Z,60.10
2023-03-19T18:07:56.446Z,55.10
2023-03-19T18:10:29.772Z,55.80
2023-03-19T18:13:00.166Z,57.60
2023-03-19T18:15:33.542Z,53.70
2023-03-19T18:18:04.433Z,52.00
2023-03-19T18:20:37.955Z,55.60
2023-03-19T18:23:06.571Z,62.10
2023-03-19T18:25:35.879Z,65.50
2023-03-19T18:28:05.173Z,51.60
2023-03-19T18:30:35.689Z,53.20
2023-03-19T18:33:08.057Z,53.50
2023-03-19T18:35:45.595Z,68.50
2023-03-19T18:38:19.853Z,54.30
2023-03-19T18:40:49.123Z,58.70
2023-03-19T18:43:17.674Z,64.80
2023-03-19T18:45:51.090Z,60.10
2023-03-19T18:48:27.458Z,62.40
2023-03-19T18:50:56.572Z,59.10
2023-03-19T18:53:25.440Z,60.40
2023-03-19T18:55:53.784Z,56.10
2023-03-19T18:58:25.712Z,53.30
2023-03-19T19:00:54.509Z,56.80
2023-03-19T19:03:29.564Z,57.10
2023-03-19T19:05:57.769Z,67.20
2023-03-19T19:08:27.020Z,91.50
2023-03-19T19:11:03.422Z,95.10
2023-03-19T19:13:46.182Z,94.30
2023-03-19T19:16:29.458Z,73.10
2023-03-19T19:18:58.108Z,66.90
2023-03-19T19:21:26.645Z,66.40
2023-03-19T19:23:54.801Z,61.00
2023-03-19T19:26:26.611Z,65.90
2023-03-19T19:28:58.399Z,82.90
2023-03-19T19:31:32.501Z,89.20
2023-03-19T19:34:00.890Z,89.40
2023-03-19T19:36:29.448Z,97.80
2023-03-19T19:38:57.538Z,96.30
2023-03-19T19:41:27.060Z,80.00
2023-03-19T19:43:55.984Z,65.60
2023-03-19T19:46:24.718Z,70.30
2023-03-19T19:48:52.939Z,63.00
2023-03-19T19:51:24.180Z,62.30
2023-03-19T19:53:53.086Z,67.40
2023-03-19T19:56:24.325Z,67.40
2023-03-19T19:58:54.313Z,67.40
2023-03-19T20:01:24.908Z,63.20
2023-03-19T20:03:53.624Z,62.40
2023-03-19T20:06:21.981Z,67.40
2023-03-19T20:08:50.937Z,71.50
2023-03-19T20:11:22.259Z,70.50
2023-03-19T20:13:54.577Z,71.80
2023-03-19T20:18:54.832Z,73.70
2023-03-19T20:21:23.382Z,76.60
2023-03-19T20:23:55.510Z,88.30
2023-03-19T20:28:53.113Z,84.90
2023-03-19T20:31:29.639Z,79.40
2023-03-19T20:33:57.974Z,80.00
2023-03-19T20:36:26.898Z,85.30
2023-03-19T20:38:54.944Z,75.80
2023-03-19T20:41:27.082Z,80.80
2023-03-19T20:43:56.520Z,88.20
2023-03-19T20:46:24.848Z,83.20
2023-03-19T20:48:53.110Z,86.70
2023-03-19T20:51:31.742Z,79.60
2023-03-19T20:53:59.979Z,77.70
2023-03-19T20:56:28.270Z,73.90
2023-03-19T20:58:56.549Z,78.20
2023-03-19T21:01:25.092Z,85.30
2023-03-19T21:03:53.425Z,90.30
2023-03-19T21:06:23.955Z,99.10
2023-03-19T21:08:57.238Z,96.20
2023-03-19T21:11:39.948Z,94.60
2023-03-19T21:14:18.611Z,94.50
2023-03-19T21:16:47.028Z,95.60
2023-03-19T21:19:16.036Z,90.40
2023-03-19T21:21:44.160Z,92.80
2023-03-19T21:24:19.460Z,99.80
2023-03-19T21:26:47.788Z,99.80
2023-03-19T21:29:26.296Z,95.50
2023-03-19T21:31:55.497Z,97.70
2023-03-19T21:34:23.620Z,98.60
2023-03-19T21:36:52.123Z,100.30
2023-03-19T21:39:20.628Z,107.70
2023-03-19T21:41:48.750Z,103.60
2023-03-19T21:44:22.190Z,133.30
2023-03-19T21:46:51.416Z,139.60
2023-03-19T21:49:20.256Z,127.50
2023-03-19T21:51:49.791Z,119.00
2023-03-19T21:54:17.939Z,118.60
2023-03-19T21:56:46.351Z,132.20
2023-03-19T21:59:29.427Z,111.70
2023-03-19T22:01:57.917Z,111.00
2023-03-19T22:04:26.037Z,100.70
2023-03-19T22:06:54.146Z,93.90
2023-03-19T22:09:22.289Z,88.40
2023-03-19T22:11:51.121Z,96.70
2023-03-19T22:14:26.897Z,88.10
2023-03-19T22:16:56.129Z,92.60
2023-03-19T22:19:24.745Z,94.70
2023-03-19T22:21:53.591Z,108.50
2023-03-19T22:24:21.787Z,116.50
2023-03-19T22:26:56.584Z,114.80
2023-03-19T22:29:25.673Z,115.80
2023-03-19T22:31:55.807Z,116.30
2023-03-19T22:34:27.961Z,113.80
2023-03-19T22:36:56.230Z,110.20
2023-03-19T22:39:24.421Z,103.10
2023-03-19T22:41:52.557Z,107.40
2023-03-19T22:44:31.576Z,104.00
2023-03-19T22:47:01.838Z,110.50
2023-03-19T22:49:31.536Z,107.00
2023-03-19T22:51:59.750Z,104.50
2023-03-19T22:54:27.885Z,103.90
2023-03-19T22:56:56.121Z,99.90
2023-03-19T22:59:24.266Z,104.00
2023-03-19T23:01:52.524Z,95.70
2023-03-19T23:04:32.279Z,93.50
2023-03-19T23:07:01.408Z,93.60
2023-03-19T23:09:38.006Z,89.20
2023-03-19T23:14:36.935Z,94.40
2023-03-19T23:17:17.519Z,90.80
2023-03-19T23:19:45.796Z,87.10
2023-03-19T23:22:16.660Z,85.80
2023-03-19T23:24:45.073Z,91.50
2023-03-19T23:27:26.401Z,86.70
2023-03-19T23:29:55.045Z,84.30
2023-03-19T23:32:23.338Z,85.30
2023-03-19T23:34:59.571Z,89.70
2023-03-19T23:37:29.727Z,79.30
2023-03-19T23:39:58.006Z,84.50
2023-03-19T23:42:29.686Z,87.80
2023-03-19T23:45:01.607Z,84.80
2023-03-19T23:47:29.977Z,89.90
2023-03-19T23:49:58.005Z,91.10
2023-03-19T23:52:26.239Z,91.00
2023-03-19T23:54:54.296Z,91.70
2023-03-19T23:57:24.564Z,89.70
2023-03-19T23:59:53.554Z,88.90
